Seybold, Florida
Current Conditions -  °F | °C
As of 7:53 PM on Tuesday 25 Nov 2014 (Local Time) from KMIA Reporting Station
Scattered Clouds Scattered Clouds  
Wind Chill: 79°   Ceiling: Unl
Heat Index: 83°   Visibility: 10mi
Dew Point: 75°   Wind: 5mph
Humidity: 88%   Direction: 180°S
Pressure: 29.99"   Gusts: NA
Location:  25.7849°N, 80.1896°W
Report Text: KMIA 260053Z 18004KT 10SM FEW013 SCT250 26/24 A2999 RMK AO2 SLP154 T02610239 $
Loading
Personal Weather Stations






























Interactive Weather Map New forecast layout! Learn more

10-Day Weather Forecast

Advertisements
Track Severe Weather on mobile